Time;durP1;ratioP1;P1;durP2;ratioP2;P2;SDS_P1;SDS_P2;PMS_P1;PMS_P2;Temp;Humidity;BMP_temperature;BMP_pressure;BME280_temperature;BME280_humidity;BME280_pressure;Samples;Min_cycle;Max_cycle;Signal;HPM_P1;HPM_P2
2023/07/21 00:00:15;;;;;;;;;2.00;2.00;;;;;23.05;76.43;101042.47;5035181;28;45510;-85
2023/07/21 00:02:45;;;;;;;;;2.00;1.00;;;;;23.05;76.18;101050.56;5025792;28;46473;-86
2023/07/21 00:05:11;;;;;;;;;1.67;1.67;;;;;23.02;76.22;101053.38;5034473;28;45563;-85
2023/07/21 00:07:36;;;;;;;;;1.33;1.33;;;;;23.01;76.53;101048.94;5035837;28;45380;-84
2023/07/21 00:10:07;;;;;;;;;1.00;1.00;;;;;22.97;76.15;101041.91;5025955;28;52396;-86
2023/07/21 00:12:46;;;;;;;;;3.00;1.00;;;;;22.95;76.34;101033.88;5037588;28;47001;-84
2023/07/21 00:15:13;;;;;;;;;1.00;1.00;;;;;22.96;76.33;101041.03;5026172;28;46483;-86
2023/07/21 00:17:38;;;;;;;;;2.33;1.67;;;;;22.95;76.17;101035.69;5038952;28;45444;-84
2023/07/21 00:20:12;;;;;;;;;1.00;1.00;;;;;22.94;76.16;101039.31;5038735;28;45224;-84
2023/07/21 00:22:38;;;;;;;;;3.00;1.00;;;;;22.90;75.60;101030.47;5037596;28;48368;-84
2023/07/21 00:25:10;;;;;;;;;2.33;1.00;;;;;22.91;75.74;101032.25;5037295;28;45386;-84
2023/07/21 00:27:36;;;;;;;;;1.00;1.00;;;;;22.89;75.95;101030.53;5038237;28;45922;-83
2023/07/21 00:30:02;;;;;;;;;2.00;1.00;;;;;22.89;75.83;101031.41;5019668;28;45313;-83
2023/07/21 00:32:31;;;;;;;;;1.00;1.00;;;;;22.87;75.81;101029.69;5037547;28;49026;-84
2023/07/21 00:34:56;;;;;;;;;3.00;1.00;;;;;22.87;76.50;101035.06;5039209;28;45350;-85
2023/07/21 00:37:22;;;;;;;;;0.33;0.00;;;;;22.87;76.37;101032.38;5032754;28;45407;-83
2023/07/21 00:39:47;;;;;;;;;0.67;0.67;;;;;22.88;76.00;101040.41;5031362;28;45276;-84
2023/07/21 00:42:12;;;;;;;;;2.00;2.00;;;;;22.87;76.31;101041.31;5027123;28;47719;-83
2023/07/21 00:44:38;;;;;;;;;2.00;2.00;;;;;22.84;76.62;101036.03;5038667;28;45292;-87
2023/07/21 00:47:03;;;;;;;;;2.33;2.33;;;;;22.86;76.54;101053.03;5036293;28;55304;-85
2023/07/21 00:49:31;;;;;;;;;1.00;1.00;;;;;22.82;76.94;101035.22;5017315;28;45312;-86
2023/07/21 00:51:57;;;;;;;;;2.00;2.00;;;;;22.85;77.01;101047.69;5036090;28;47366;-84
2023/07/21 00:54:22;;;;;;;;;1.00;1.00;;;;;22.80;77.01;101037.13;5021084;28;45218;-84
2023/07/21 00:56:48;;;;;;;;;1.00;1.00;;;;;22.78;77.00;101035.41;5036998;28;45427;-86
2023/07/21 00:59:14;;;;;;;;;1.00;1.00;;;;;22.77;77.29;101031.81;5016914;28;45502;-83
2023/07/21 01:01:39;;;;;;;;;1.00;1.00;;;;;22.74;77.39;101021.16;5036881;28;46858;-84
2023/07/21 01:04:05;;;;;;;;;2.00;1.00;;;;;22.75;77.96;101041.78;5032411;28;63265;-83
2023/07/21 01:06:31;;;;;;;;;1.00;1.00;;;;;22.71;78.39;101027.53;5037081;28;45476;-85
2023/07/21 01:08:58;;;;;;;;;0.67;0.67;;;;;22.73;79.50;101025.66;5036833;28;45633;-86
2023/07/21 01:11:24;;;;;;;;;2.00;2.00;;;;;22.73;79.15;101032.88;5033526;28;45698;-84
2023/07/21 01:13:50;;;;;;;;;2.00;2.00;;;;;22.73;79.06;101040.94;5034048;28;68020;-84
2023/07/21 01:16:16;;;;;;;;;3.00;1.67;;;;;22.70;79.80;101050.03;5037359;28;45290;-84
2023/07/21 01:18:43;;;;;;;;;2.00;2.00;;;;;22.65;81.37;101035.84;5029618;28;53347;-85
2023/07/21 01:21:12;;;;;;;;;1.00;1.00;;;;;22.63;82.00;101039.50;5037193;28;46243;-85
2023/07/21 01:23:45;;;;;;;;;2.00;2.00;;;;;22.61;83.57;101044.06;5035637;28;45546;-83
2023/07/21 01:26:11;;;;;;;;;1.00;1.00;;;;;22.57;85.73;101053.19;5037334;28;45388;-85
2023/07/21 01:28:39;;;;;;;;;1.00;1.00;;;;;22.56;88.43;101052.31;5038049;28;45563;-84
2023/07/21 01:31:05;;;;;;;;;1.67;1.33;;;;;22.50;89.88;101036.38;5037798;28;48264;-87
2023/07/21 01:33:31;;;;;;;;;1.33;1.33;;;;;22.48;92.17;101040.94;5035326;28;45818;-85
2023/07/21 01:35:57;;;;;;;;;2.00;2.00;;;;;22.47;93.07;101050.81;5019668;28;62551;-84
2023/07/21 01:38:23;;;;;;;;;2.00;2.00;;;;;22.44;93.99;101045.56;5036295;28;56573;-85
2023/07/21 01:40:49;;;;;;;;;2.00;2.00;;;;;22.40;96.31;101046.59;5024999;28;59525;-85
2023/07/21 01:43:15;;;;;;;;;1.00;1.00;;;;;22.32;96.75;101032.53;5036666;28;45452;-84
2023/07/21 01:45:41;;;;;;;;;2.00;2.00;;;;;22.27;96.92;101026.44;5018547;28;45443;-84
2023/07/21 01:48:07;;;;;;;;;1.67;1.00;;;;;22.22;99.04;101020.31;5036502;28;45646;-84
2023/07/21 01:50:33;;;;;;;;;3.00;1.33;;;;;22.15;100.00;101013.38;5036565;28;46206;-85
2023/07/21 01:53:00;;;;;;;;;2.00;2.00;;;;;22.11;100.00;101017.13;5033941;28;58996;-87
2023/07/21 01:55:31;;;;;;;;;3.00;2.00;;;;;22.03;100.00;101005.69;5036720;28;45336;-84
2023/07/21 01:57:59;;;;;;;;;2.00;2.00;;;;;21.96;100.00;101011.28;5020154;28;45616;-84
2023/07/21 02:00:26;;;;;;;;;1.67;1.67;;;;;21.92;100.00;101011.44;5035846;28;46285;-85
2023/07/21 02:02:52;;;;;;;;;2.00;2.00;;;;;21.89;100.00;101012.44;5049081;28;45182;-84
2023/07/21 02:05:22;;;;;;;;;2.00;2.00;;;;;21.85;100.00;101020.66;5035217;28;59182;-86
2023/07/21 02:07:48;;;;;;;;;1.00;1.00;;;;;21.78;100.00;101009.19;5036617;28;45319;-84
2023/07/21 02:10:13;;;;;;;;;1.67;1.67;;;;;21.76;100.00;101021.81;5011909;28;46284;-83
2023/07/21 02:12:39;;;;;;;;;4.00;2.00;;;;;21.71;100.00;101013.88;5036063;28;45400;-86
2023/07/21 02:15:06;;;;;;;;;2.00;1.00;;;;;21.67;100.00;101011.34;5037442;28;45547;-83
2023/07/21 02:17:33;;;;;;;;;2.33;2.00;;;;;21.62;100.00;101008.81;5028809;28;45348;-84
2023/07/21 02:19:58;;;;;;;;;2.00;2.00;;;;;21.62;100.00;101011.50;5036928;28;46065;-85
2023/07/21 02:22:23;;;;;;;;;3.00;2.00;;;;;21.56;100.00;101009.00;5019328;28;45333;-87
2023/07/21 02:24:49;;;;;;;;;1.00;1.00;;;;;21.56;100.00;101005.44;5034847;28;62688;-85
2023/07/21 02:27:14;;;;;;;;;3.33;2.00;;;;;21.53;100.00;101010.91;5035304;28;62232;-85
2023/07/21 02:29:39;;;;;;;;;1.33;1.33;;;;;21.51;100.00;101019.00;5036502;28;67075;-84
2023/07/21 02:32:05;;;;;;;;;4.00;1.67;;;;;21.48;100.00;101010.19;5034032;28;63993;-85
2023/07/21 02:34:30;;;;;;;;;3.00;2.00;;;;;21.49;100.00;101012.81;5035850;28;45351;-85
2023/07/21 02:36:56;;;;;;;;;2.00;2.00;;;;;21.44;100.00;101012.97;5036997;28;45431;-84
2023/07/21 02:39:21;;;;;;;;;3.00;3.00;;;;;21.42;100.00;101017.50;5036975;28;45622;-84
2023/07/21 02:41:47;;;;;;;;;1.00;1.00;;;;;21.38;100.00;101021.22;5035255;28;45344;-86
2023/07/21 02:44:12;;;;;;;;;3.00;1.67;;;;;21.34;100.00;101019.53;5035949;28;45241;-84
2023/07/21 02:46:37;;;;;;;;;2.00;2.00;;;;;21.30;100.00;101020.53;5031385;28;60536;-86
2023/07/21 02:49:03;;;;;;;;;3.00;3.00;;;;;21.26;100.00;101015.31;5036984;28;45716;-84
2023/07/21 02:51:28;;;;;;;;;2.00;2.00;;;;;21.23;100.00;101010.00;5034971;28;45462;-84
2023/07/21 02:53:53;;;;;;;;;2.00;2.00;;;;;21.21;100.00;101022.63;5034407;28;59121;-85
2023/07/21 02:56:19;;;;;;;;;3.67;3.33;;;;;21.18;100.00;101012.84;5048821;28;61237;-83
2023/07/21 02:58:44;;;;;;;;;2.67;2.67;;;;;21.16;100.00;101017.38;5035013;28;48043;-85
2023/07/21 03:01:12;;;;;;;;;3.67;2.00;;;;;21.14;100.00;101012.03;5035234;28;45335;-87
2023/07/21 03:03:38;;;;;;;;;3.00;2.00;;;;;21.12;100.00;101010.34;5015007;28;45285;-86
2023/07/21 03:06:05;;;;;;;;;2.00;2.00;;;;;21.11;100.00;101009.47;5030962;28;45232;-85
2023/07/21 03:08:31;;;;;;;;;2.67;2.67;;;;;21.08;100.00;101009.53;5034850;28;46671;-84
2023/07/21 03:10:57;;;;;;;;;5.33;2.00;;;;;21.03;100.00;101011.47;5036463;28;45269;-83
2023/07/21 03:13:24;;;;;;;;;4.33;3.00;;;;;21.00;100.00;101003.53;5034860;28;45497;-86
2023/07/21 03:15:50;;;;;;;;;3.67;3.00;;;;;20.98;100.00;101010.72;5035544;28;45300;-84
2023/07/21 03:18:15;;;;;;;;;3.00;3.00;;;;;20.98;100.00;101009.84;5036033;28;46598;-84
2023/07/21 03:20:40;;;;;;;;;5.67;2.67;;;;;20.97;100.00;101016.16;5035042;28;45430;-84
2023/07/21 03:23:07;;;;;;;;;4.00;4.00;;;;;20.92;100.00;101013.59;5027288;28;45214;-84
2023/07/21 03:25:37;;;;;;;;;6.00;4.00;;;;;20.89;100.00;101013.72;5035221;28;45493;-84
2023/07/21 03:28:03;;;;;;;;;3.00;3.00;;;;;20.89;100.00;101013.72;5018620;28;48459;-84
2023/07/21 03:30:29;;;;;;;;;4.00;4.00;;;;;20.86;100.00;101005.72;5036138;28;45428;-84
2023/07/21 03:32:54;;;;;;;;;3.00;3.00;;;;;20.82;100.00;101004.94;5035572;28;63371;-86
2023/07/21 03:35:19;;;;;;;;;4.33;3.33;;;;;20.88;100.00;101003.91;5033796;28;63297;-84
2023/07/21 03:37:45;;;;;;;;;2.33;2.33;;;;;20.89;100.00;101013.72;5035037;28;48658;-84
2023/07/21 03:40:11;;;;;;;;;2.67;2.67;;;;;20.84;100.00;101008.47;5035989;28;45262;-84
2023/07/21 03:42:36;;;;;;;;;3.00;3.00;;;;;20.85;100.00;101017.41;5034874;28;45257;-84
2023/07/21 03:45:05;;;;;;;;;2.00;2.00;;;;;20.82;100.00;101017.47;5030497;28;45689;-85
2023/07/21 03:47:31;;;;;;;;;4.33;3.33;;;;;20.76;100.00;101023.88;5020577;28;47747;-84
2023/07/21 03:49:58;;;;;;;;;4.00;4.00;;;;;20.73;100.00;101024.00;5035294;28;45388;-85
2023/07/21 03:52:23;;;;;;;;;3.00;3.00;;;;;20.67;100.00;101024.16;5039757;28;45385;-84
2023/07/21 03:54:48;;;;;;;;;3.00;3.00;;;;;20.64;100.00;101024.25;5037545;28;63231;-83
2023/07/21 03:57:14;;;;;;;;;5.00;3.33;;;;;20.63;100.00;101026.03;5037911;28;68053;-84
2023/07/21 03:59:41;;;;;;;;;3.33;3.00;;;;;20.60;100.00;101019.88;5039155;28;45578;-83
2023/07/21 04:02:07;;;;;;;;;3.67;3.67;;;;;20.56;100.00;101020.88;5038028;28;45253;-83
2023/07/21 04:04:33;;;;;;;;;7.00;4.00;;;;;20.55;100.00;101024.47;5037927;28;45586;-83
2023/07/21 04:07:01;;;;;;;;;4.00;2.67;;;;;20.51;100.00;101025.50;5037999;28;45502;-85
2023/07/21 04:09:29;;;;;;;;;4.00;3.00;;;;;20.44;100.00;101022.06;5038254;28;45379;-84
2023/07/21 04:11:55;;;;;;;;;3.00;3.00;;;;;20.39;100.00;101022.16;5037968;28;45454;-83
2023/07/21 04:14:20;;;;;;;;;2.33;2.33;;;;;20.36;100.00;101021.41;5032624;28;63547;-83
2023/07/21 04:16:45;;;;;;;;;4.33;3.00;;;;;20.31;100.00;101008.09;5029610;28;46927;-84
2023/07/21 04:19:11;;;;;;;;;3.00;3.00;;;;;20.30;100.00;101030.47;5038726;28;63137;-84
2023/07/21 04:21:36;;;;;;;;;1.67;1.67;;;;;20.30;100.00;101029.59;5039232;28;45284;-84
2023/07/21 04:24:02;;;;;;;;;1.67;1.67;;;;;20.29;100.00;101025.13;5039572;28;45430;-83
2023/07/21 04:26:28;;;;;;;;;2.67;2.67;;;;;20.29;100.00;101028.69;5039166;28;46867;-84
2023/07/21 04:28:53;;;;;;;;;4.33;2.00;;;;;20.31;100.00;101021.50;5037995;28;59714;-83
2023/07/21 04:31:21;;;;;;;;;2.67;1.67;;;;;20.34;100.00;101031.25;5038501;28;60082;-84
2023/07/21 04:33:48;;;;;;;;;2.67;2.67;;;;;20.33;100.00;101021.47;5038913;28;45335;-85
2023/07/21 04:36:14;;;;;;;;;2.67;2.67;;;;;20.35;100.00;101025.00;5039141;28;46057;-84
2023/07/21 04:38:39;;;;;;;;;2.00;2.00;;;;;20.38;100.00;101028.47;5037567;28;45221;-85
2023/07/21 04:41:04;;;;;;;;;4.00;2.00;;;;;20.38;100.00;101025.78;5037378;28;53382;-86
2023/07/21 04:43:30;;;;;;;;;1.00;1.00;;;;;20.42;100.00;101023.91;5036524;28;58980;-85
2023/07/21 04:45:55;;;;;;;;;5.67;3.00;;;;;20.40;100.00;101015.91;5033036;28;65367;-85
2023/07/21 04:48:21;;;;;;;;;2.67;2.67;;;;;20.42;100.00;101014.06;5037286;28;45523;-84
2023/07/21 04:50:56;;;;;;;;;3.00;3.00;;;;;20.46;100.00;101011.31;5020747;28;45230;-84
2023/07/21 04:53:22;;;;;;;;;1.00;1.00;;;;;20.48;100.00;101017.53;5038615;28;45447;-84
2023/07/21 04:55:48;;;;;;;;;2.00;1.67;;;;;20.48;100.00;101021.09;5037726;28;46131;-84
2023/07/21 04:58:13;;;;;;;;;3.00;2.00;;;;;20.46;100.00;101016.66;5035592;28;45368;-85
2023/07/21 05:00:38;;;;;;;;;1.00;1.00;;;;;20.48;100.00;101009.47;5036383;28;64401;-84
2023/07/21 05:03:03;;;;;;;;;3.00;2.00;;;;;20.47;100.00;100997.00;5037999;28;53404;-84
2023/07/21 05:05:30;;;;;;;;;3.00;3.00;;;;;20.48;100.00;100998.75;5036309;28;66652;-84
2023/07/21 05:07:55;;;;;;;;;1.00;1.00;;;;;20.47;100.00;101002.38;5037267;28;45388;-83
2023/07/21 05:10:21;;;;;;;;;4.00;3.00;;;;;20.49;100.00;101017.47;5037252;28;45351;-84
2023/07/21 05:12:46;;;;;;;;;2.33;2.33;;;;;20.49;100.00;101012.13;5036523;28;58337;-83
2023/07/21 05:15:13;;;;;;;;;3.00;2.00;;;;;20.51;100.00;101012.09;5037094;28;65346;-83
2023/07/21 05:17:37;;;;;;;;;4.00;2.00;;;;;20.51;100.00;101030.88;5146593;22;45971;-84
2023/07/21 05:20:05;;;;;;;;;2.00;2.00;;;;;20.51;100.00;101031.75;5037415;28;62089;-83
2023/07/21 05:22:30;;;;;;;;;5.00;2.00;;;;;20.54;100.00;101025.41;5036882;28;45591;-85
2023/07/21 05:24:56;;;;;;;;;1.00;1.00;;;;;20.55;100.00;101024.47;5035978;28;66224;-85
2023/07/21 05:27:22;;;;;;;;;2.67;2.00;;;;;20.56;100.00;101023.56;5035775;28;69979;-85
2023/07/21 05:29:47;;;;;;;;;1.00;1.00;;;;;20.56;100.00;101024.47;5038295;28;45438;-84
2023/07/21 05:32:14;;;;;;;;;2.00;2.00;;;;;20.53;100.00;101007.56;5036658;28;45293;-84
2023/07/21 05:35:08;;;;;;;;;1.33;1.33;;;;;20.55;100.00;101001.22;5036905;28;47544;-85
2023/07/21 05:37:33;;;;;;;;;3.00;2.00;;;;;20.56;100.00;101003.00;5035253;28;45416;-84
2023/07/21 05:39:59;;;;;;;;;3.00;1.33;;;;;20.52;100.00;100997.75;5036283;28;56258;-84
2023/07/21 05:42:24;;;;;;;;;1.67;1.67;;;;;20.55;100.00;101013.75;5033243;28;62793;-85
2023/07/21 05:44:49;;;;;;;;;3.00;2.00;;;;;20.52;100.00;101012.03;5014299;28;71404;-85
2023/07/21 05:47:19;;;;;;;;;2.00;1.00;;;;;20.55;100.00;101019.13;5035507;28;45415;-84
2023/07/21 05:49:44;;;;;;;;;2.00;2.00;;;;;20.53;100.00;101024.53;5037640;28;45443;-84
2023/07/21 05:52:10;;;;;;;;;3.00;2.00;;;;;20.52;100.00;101020.09;5037905;28;45287;-83
2023/07/21 05:54:37;;;;;;;;;3.00;1.67;;;;;20.52;100.00;101005.81;5037784;28;45755;-85
2023/07/21 05:57:02;;;;;;;;;5.00;2.00;;;;;20.55;100.00;101020.00;5022545;28;45317;-85
2023/07/21 05:59:28;;;;;;;;;2.67;2.00;;;;;20.58;100.00;101017.25;5036257;28;45447;-84
2023/07/21 06:02:00;;;;;;;;;3.00;3.00;;;;;20.63;100.00;101026.03;5031790;28;57700;-84
2023/07/21 06:04:26;;;;;;;;;2.00;2.00;;;;;20.62;100.00;101040.38;5031680;28;45607;-84
2023/07/21 06:06:53;;;;;;;;;2.00;2.00;;;;;20.63;100.00;101031.41;5009273;28;45415;-84
2023/07/21 06:09:19;;;;;;;;;2.00;2.00;;;;;20.65;100.00;101034.03;5037084;28;45311;-86
2023/07/21 06:11:44;;;;;;;;;2.00;2.00;;;;;20.63;100.00;101012.63;5037167;28;45340;-87
2023/07/21 06:14:10;;;;;;;;;2.00;2.00;;;;;20.67;100.00;101008.06;5036019;28;55040;-85
2023/07/21 06:16:35;;;;;;;;;3.67;2.33;;;;;20.69;100.00;101019.63;5035843;28;45221;-85
2023/07/21 06:19:03;;;;;;;;;3.00;3.00;;;;;20.74;100.00;101027.56;5036806;28;58504;-84
2023/07/21 06:21:29;;;;;;;;;3.00;3.00;;;;;20.77;100.00;101030.13;5037309;28;45280;-84
2023/07/21 06:23:54;;;;;;;;;4.33;4.00;;;;;20.76;100.00;101017.66;5035782;28;47818;-85
2023/07/21 06:26:20;;;;;;;;;5.33;5.33;;;;;20.81;100.00;101024.66;5036595;28;57230;-84
2023/07/21 06:28:45;;;;;;;;;4.00;4.00;;;;;20.74;100.00;101016.81;5031427;28;45400;-85
2023/07/21 06:31:11;;;;;;;;;5.00;4.00;;;;;20.74;100.00;101024.88;5036620;28;51658;-84
2023/07/21 06:33:37;;;;;;;;;4.00;3.00;;;;;20.75;100.00;101029.31;5036623;28;46566;-84
2023/07/21 06:36:02;;;;;;;;;6.67;5.00;;;;;20.74;100.00;101025.75;5036987;28;45385;-84
2023/07/21 06:38:28;;;;;;;;;7.00;6.00;;;;;20.69;100.00;101025.00;5037302;28;45407;-85
2023/07/21 06:40:53;;;;;;;;;5.33;4.67;;;;;20.74;100.00;101043.66;5037169;28;45438;-85
2023/07/21 06:43:19;;;;;;;;;4.00;4.00;;;;;20.74;100.00;101031.13;5022920;28;49557;-85
2023/07/21 06:45:46;;;;;;;;;4.00;4.00;;;;;20.78;100.00;101040.84;5030552;28;62296;-84
2023/07/21 06:48:12;;;;;;;;;5.00;5.00;;;;;20.79;100.00;101039.03;5031788;28;65355;-84
2023/07/21 06:50:38;;;;;;;;;5.33;4.00;;;;;20.81;100.00;101035.38;5037218;28;45320;-85
2023/07/21 06:53:05;;;;;;;;;6.33;5.67;;;;;20.85;100.00;101030.81;5018453;28;46823;-84
2023/07/21 06:55:31;;;;;;;;;5.00;5.00;;;;;20.87;100.00;101023.59;5035878;28;45538;-84
2023/07/21 06:57:57;;;;;;;;;5.00;5.00;;;;;20.89;100.00;101033.38;5023970;28;45474;-84
2023/07/21 07:00:23;;;;;;;;;9.00;7.00;;;;;20.92;100.00;101021.66;5034029;28;64583;-84
2023/07/21 07:02:49;;;;;;;;;6.00;5.00;;;;;20.93;100.00;101016.25;5031409;28;46537;-84
2023/07/21 07:05:17;;;;;;;;;7.00;5.00;;;;;20.92;100.00;101017.16;5018346;28;45384;-84
2023/07/21 07:07:43;;;;;;;;;6.00;5.33;;;;;20.90;100.00;101032.44;5035699;28;45312;-84
2023/07/21 07:10:09;;;;;;;;;10.00;6.33;;;;;20.85;100.00;101020.94;5034897;28;45269;-84
2023/07/21 07:12:34;;;;;;;;;9.33;7.00;;;;;20.82;100.00;101030.88;5016408;28;47275;-85
2023/07/21 07:15:00;;;;;;;;;6.67;6.67;;;;;20.79;100.00;101025.63;5030536;28;45337;-85
2023/07/21 07:17:25;;;;;;;;;5.33;5.33;;;;;20.76;100.00;101026.56;5028833;28;57238;-86
2023/07/21 07:19:50;;;;;;;;;7.00;7.00;;;;;20.71;100.00;101016.88;5035743;28;59923;-84
2023/07/21 07:22:17;;;;;;;;;8.00;8.00;;;;;20.67;100.00;101029.53;5036002;28;46395;-84
2023/07/21 07:24:42;;;;;;;;;9.33;6.33;;;;;20.61;100.00;101030.59;5035202;28;45327;-85
2023/07/21 07:27:08;;;;;;;;;6.33;6.33;;;;;20.53;100.00;101037.94;5035216;28;61076;-84
2023/07/21 07:29:34;;;;;;;;;4.00;4.00;;;;;20.51;100.00;101041.59;5036073;28;54374;-84
2023/07/21 07:32:00;;;;;;;;;6.00;5.67;;;;;20.49;100.00;101038.06;5017723;28;48478;-84
2023/07/21 07:34:26;;;;;;;;;5.67;4.67;;;;;20.48;100.00;101039.00;5035612;28;65620;-84
2023/07/21 07:36:52;;;;;;;;;6.67;5.67;;;;;20.46;100.00;101032.75;5034890;28;45445;-85
2023/07/21 07:39:18;;;;;;;;;5.67;5.67;;;;;20.45;100.00;101039.91;5036554;28;45446;-85
2023/07/21 07:41:44;;;;;;;;;8.00;7.33;;;;;20.46;100.00;101054.22;5034561;28;45542;-84
2023/07/21 07:44:11;;;;;;;;;6.00;5.67;;;;;20.43;100.00;101041.75;5022068;28;45554;-84
2023/07/21 07:46:37;;;;;;;;;7.33;6.33;;;;;20.37;100.00;101048.16;5032654;28;45426;-84
2023/07/21 07:49:03;;;;;;;;;9.00;6.00;;;;;20.34;100.00;101048.22;5032501;28;45452;-84
2023/07/21 07:51:29;;;;;;;;;10.00;5.33;;;;;20.31;100.00;101045.66;5015698;28;48295;-84
2023/07/21 07:53:54;;;;;;;;;9.33;9.33;;;;;20.32;100.00;101051.88;5034965;28;45371;-86
2023/07/21 07:56:21;;;;;;;;;13.33;10.00;;;;;20.28;100.00;101058.25;5034196;28;63826;-84
2023/07/21 07:58:47;;;;;;;;;12.00;12.00;;;;;20.24;100.00;101060.16;5035468;28;45411;-85
2023/07/21 08:01:13;;;;;;;;;12.67;7.67;;;;;20.30;100.00;101065.34;5017808;28;48409;-84
2023/07/21 08:03:43;;;;;;;;;14.67;9.33;;;;;20.27;100.00;101052.00;5031018;28;45332;-84
2023/07/21 08:06:12;;;;;;;;;13.33;11.33;;;;;20.34;100.00;101060.75;5034745;28;45420;-86
2023/07/21 08:08:38;;;;;;;;;14.33;10.00;;;;;20.40;100.00;101057.94;5035945;28;45378;-87
2023/07/21 08:11:03;;;;;;;;;7.33;7.00;;;;;20.51;100.00;101068.44;5051240;28;46803;-84
2023/07/21 08:13:29;;;;;;;;;9.00;7.33;;;;;20.58;100.00;101070.03;5034033;28;45415;-87
2023/07/21 08:15:54;;;;;;;;;10.33;7.00;;;;;20.66;100.00;101065.31;5034588;28;45316;-84
2023/07/21 08:18:19;;;;;;;;;11.67;10.33;;;;;20.77;100.00;101067.69;5035241;28;58775;-84
2023/07/21 08:20:45;;;;;;;;;7.00;7.00;;;;;20.87;100.00;101077.28;5034349;28;48936;-84
2023/07/21 08:23:10;;;;;;;;;6.67;6.00;;;;;20.90;100.00;101072.72;5034802;28;59780;-85
2023/07/21 08:25:35;;;;;;;;;8.67;8.00;;;;;20.96;100.00;101070.78;5035377;28;55662;-84
2023/07/21 08:28:03;;;;;;;;;11.00;8.00;;;;;21.01;100.00;101068.84;5017266;28;63562;-84
2023/07/21 08:30:29;;;;;;;;;6.67;6.67;;;;;21.03;100.00;101077.72;5033710;28;48719;-84
2023/07/21 08:32:58;;;;;;;;;6.67;6.67;;;;;21.06;100.00;101066.91;5036355;28;45365;-86
2023/07/21 08:35:23;;;;;;;;;6.67;6.00;;;;;21.08;100.00;101068.59;5037458;28;45244;-83
2023/07/21 08:37:49;;;;;;;;;8.00;8.00;;;;;21.11;100.00;101068.53;5038734;28;62404;-84
2023/07/21 08:40:14;;;;;;;;;7.00;6.67;;;;;21.09;100.00;101066.81;5036273;28;70165;-84
2023/07/21 08:42:39;;;;;;;;;8.00;8.00;;;;;21.15;100.00;101070.22;5037989;28;63884;-84
2023/07/21 08:45:05;;;;;;;;;7.00;7.00;;;;;21.19;100.00;101073.66;5020750;28;45406;-84
2023/07/21 08:47:31;;;;;;;;;6.67;6.00;;;;;21.25;100.00;101073.50;5039263;28;45607;-84
2023/07/21 08:49:57;;;;;;;;;10.00;8.00;;;;;21.32;100.00;101076.94;5036940;28;46613;-87
2023/07/21 08:52:23;;;;;;;;;14.33;8.33;;;;;21.34;100.00;101064.31;5020806;28;45386;-84
2023/07/21 08:54:48;;;;;;;;;5.67;5.67;;;;;21.41;100.00;101065.88;5037130;28;45388;-84
2023/07/21 08:57:14;;;;;;;;;12.33;9.00;;;;;21.55;100.00;101065.47;5037585;28;45534;-84
2023/07/21 08:59:40;;;;;;;;;10.67;7.00;;;;;21.62;100.00;101064.34;5037378;28;46008;-84
2023/07/21 09:02:06;;;;;;;;;7.00;7.00;;;;;21.68;100.00;101067.75;5026760;28;45284;-85
2023/07/21 09:04:31;;;;;;;;;8.67;8.00;;;;;21.64;100.00;101063.41;5033232;28;45451;-84
2023/07/21 09:06:58;;;;;;;;;8.33;8.00;;;;;21.62;100.00;101061.66;5036830;28;45482;-84
2023/07/21 09:09:27;;;;;;;;;7.00;5.67;;;;;21.67;100.00;101057.03;5038062;28;46353;-84
2023/07/21 09:12:01;;;;;;;;;6.33;6.33;;;;;21.77;100.00;101063.00;5036678;28;45411;-84
2023/07/21 09:14:43;;;;;;;;;7.00;5.00;;;;;21.83;100.00;101060.13;5038428;28;45532;-84
2023/07/21 09:17:11;;;;;;;;;9.00;7.67;;;;;21.86;100.00;101055.53;5030847;28;45159;-84
2023/07/21 09:19:38;;;;;;;;;7.67;7.00;;;;;21.90;100.00;101062.56;5037850;28;46032;-84
2023/07/21 09:22:03;;;;;;;;;6.33;6.33;;;;;21.93;100.00;101053.50;5038082;28;45439;-84
2023/07/21 09:24:29;;;;;;;;;7.00;5.67;;;;;21.97;100.00;101057.88;5036870;28;45362;-86
2023/07/21 09:27:13;;;;;;;;;6.67;6.67;;;;;22.02;100.00;101057.72;5036560;28;59086;-83
2023/07/21 09:29:40;;;;;;;;;4.67;4.67;;;;;22.05;100.00;101060.28;5030190;28;47999;-83
2023/07/21 09:32:18;;;;;;;;;4.00;4.00;;;;;22.09;100.00;101060.16;5037502;28;45320;-84
2023/07/21 09:35:01;;;;;;;;;6.00;6.00;;;;;22.15;100.00;101061.78;5037058;28;45207;-83
2023/07/21 09:37:28;;;;;;;;;7.00;5.67;;;;;22.18;100.00;101062.56;5023485;28;45599;-86
2023/07/21 09:39:59;;;;;;;;;6.67;5.00;;;;;22.22;100.00;101058.00;5037525;28;46438;-84
2023/07/21 09:42:28;;;;;;;;;5.00;5.00;;;;;22.31;100.00;101059.47;5037336;28;45471;-85
2023/07/21 09:44:56;;;;;;;;;7.00;7.00;;;;;22.41;100.00;101061.78;5032012;28;45241;-84
2023/07/21 09:47:22;;;;;;;;;4.67;4.00;;;;;22.47;100.00;101066.06;5037985;28;45350;-87
2023/07/21 09:49:49;;;;;;;;;4.00;4.00;;;;;22.51;100.00;101066.88;5019534;28;47381;-83
2023/07/21 09:52:17;;;;;;;;;5.33;5.33;;;;;22.58;100.00;101071.09;5037875;28;45308;-84
2023/07/21 09:54:45;;;;;;;;;6.00;4.67;;;;;22.68;100.00;101069.84;5036272;28;45326;-83
2023/07/21 09:57:22;;;;;;;;;4.00;4.00;;;;;22.81;100.00;101065.78;5036459;28;45530;-84
2023/07/21 09:59:49;;;;;;;;;4.67;4.67;;;;;22.93;100.00;101067.19;5037048;28;46629;-84
2023/07/21 10:02:16;;;;;;;;;6.33;5.00;;;;;22.95;99.82;101054.53;5035827;28;45270;-85
2023/07/21 10:04:43;;;;;;;;;3.00;3.00;;;;;22.94;98.78;101074.31;5036402;28;45396;-84
2023/07/21 10:07:09;;;;;;;;;4.00;4.00;;;;;22.92;97.93;101069.00;5037265;28;45340;-85
2023/07/21 10:09:36;;;;;;;;;5.67;4.67;;;;;22.97;97.67;101063.44;5036113;28;45655;-85
2023/07/21 10:12:15;;;;;;;;;4.00;4.00;;;;;23.06;97.10;101064.91;5034252;28;45324;-84
2023/07/21 10:14:41;;;;;;;;;3.00;3.00;;;;;23.13;96.78;101063.75;5036121;28;45450;-82
2023/07/21 10:17:08;;;;;;;;;3.67;3.67;;;;;23.17;94.90;101084.25;5036167;28;45229;-82
2023/07/21 10:19:44;;;;;;;;;6.33;4.67;;;;;23.15;94.30;101069.97;5015116;28;48864;-84
2023/07/21 10:22:12;;;;;;;;;3.33;3.33;;;;;23.17;93.89;101071.69;5036125;28;45410;-82
2023/07/21 10:24:51;;;;;;;;;3.33;3.00;;;;;23.25;92.54;101069.56;5036622;28;45390;-84
2023/07/21 10:27:23;;;;;;;;;5.67;3.00;;;;;23.32;91.72;101075.59;5031770;28;45447;-83
2023/07/21 10:29:52;;;;;;;;;4.33;3.00;;;;;23.36;91.48;101060.19;5035912;28;45903;-82
2023/07/21 10:32:20;;;;;;;;;4.67;4.67;;;;;23.39;91.80;101060.97;5015518;28;45293;-82
2023/07/21 10:34:46;;;;;;;;;3.33;3.00;;;;;23.50;91.25;101066.81;5029605;28;45399;-82
2023/07/21 10:37:11;;;;;;;;;4.00;4.00;;;;;23.62;90.46;101065.44;5002909;28;45342;-82
2023/07/21 10:39:42;;;;;;;;;3.00;3.00;;;;;23.78;90.24;101076.53;5027942;28;46280;-82
2023/07/21 10:42:08;;;;;;;;;6.33;5.00;;;;;23.95;89.76;101062.38;5035166;28;45470;-84
2023/07/21 10:44:45;;;;;;;;;2.00;2.00;;;;;24.10;89.44;101056.34;5035859;28;45540;-84
2023/07/21 10:47:15;;;;;;;;;6.00;3.33;;;;;24.21;89.11;101055.91;5035889;28;45594;-85
2023/07/21 10:49:41;;;;;;;;;2.33;2.33;;;;;24.24;88.38;101056.66;5000392;28;47530;-84
2023/07/21 10:52:07;;;;;;;;;2.00;2.00;;;;;24.25;87.59;101054.84;5036622;28;45400;-84
2023/07/21 10:54:32;;;;;;;;;3.00;3.00;;;;;24.25;86.03;101055.72;5037109;28;45336;-84
2023/07/21 10:56:59;;;;;;;;;4.00;4.00;;;;;24.37;85.13;101056.16;5036212;28;45276;-84
2023/07/21 10:59:25;;;;;;;;;2.00;2.00;;;;;24.46;84.25;101059.34;5035592;28;47516;-85
2023/07/21 11:01:53;;;;;;;;;4.67;4.00;;;;;24.55;83.65;101063.44;5034616;28;45332;-83
2023/07/21 11:04:20;;;;;;;;;4.67;3.00;;;;;24.60;84.47;101049.75;5027187;28;45463;-84
2023/07/21 11:06:58;;;;;;;;;3.00;3.00;;;;;24.68;83.41;101063.81;5027701;28;45193;-84
2023/07/21 11:09:25;;;;;;;;;4.00;4.00;;;;;24.70;82.32;101057.38;5027634;28;46107;-86
2023/07/21 11:11:54;;;;;;;;;3.00;3.00;;;;;24.74;81.90;101060.84;5035746;28;45466;-82
2023/07/21 11:14:24;;;;;;;;;0.00;0.00;;;;;24.77;79.90;101058.88;5034593;28;45483;-82
2023/07/21 11:17:00;;;;;;;;;2.00;2.00;;;;;24.82;80.56;101053.25;5018853;28;45547;-83